ELY401 LLER-LLBG
Flight info
| Callsign | ELY401 |
|---|---|
| Flight time | 0h 39m |
| Altitude | 25000 |
| Route | NURIT J10 AMMIT |
| Aircraft | B738/M-SDE2E3FGHIRWXY/LB1 |
Departure
| Time | 2026-04-25 16:39 |
|---|---|
| Airport | Ramon International Airport (LLER) |
Arrival
| Time | 2026-04-25 17:19 |
|---|---|
| Airport | Ben Gurion International Airport (LLBG) |
| Time | Latitude | Longitude | Altitude | Speed | Heading |
|---|---|---|---|---|---|
| 2026-04-25 16:13 | 29.72896 | 35.00900 | 302 ft | 0 kts | 284° |
| 2026-04-25 16:23 | 29.72894 | 35.00908 | 301 ft | 2 kts | 284° |
| 2026-04-25 16:24 | 29.72890 | 35.00926 | 302 ft | 2 kts | 284° |
| 2026-04-25 16:24 | 29.72885 | 35.00941 | 302 ft | 2 kts | 299° |
| 2026-04-25 16:24 | 29.72877 | 35.00956 | 302 ft | 2 kts | 311° |
| 2026-04-25 16:24 | 29.72866 | 35.00967 | 302 ft | 2 kts | 325° |
| 2026-04-25 16:25 | 29.72858 | 35.00973 | 302 ft | 2 kts | 333° |
| 2026-04-25 16:25 | 29.72844 | 35.00979 | 302 ft | 2 kts | 347° |
| 2026-04-25 16:25 | 29.72823 | 35.00981 | 302 ft | 2 kts | 6° |
| 2026-04-25 16:25 | 29.72816 | 35.00979 | 302 ft | 0 kts | 13° |
| 2026-04-25 16:26 | 29.72809 | 35.00977 | 302 ft | 0 kts | 15° |
| 2026-04-25 16:36 | 29.72852 | 35.00996 | 302 ft | 11 kts | 34° |
| 2026-04-25 16:36 | 29.72857 | 35.01111 | 302 ft | 20 kts | 103° |
| 2026-04-25 16:37 | 29.72899 | 35.01244 | 303 ft | 22 kts | 12° |
| 2026-04-25 16:37 | 29.73083 | 35.01289 | 303 ft | 31 kts | 12° |
| 2026-04-25 16:37 | 29.73319 | 35.01360 | 303 ft | 39 kts | 14° |
| 2026-04-25 16:37 | 29.73621 | 35.01451 | 304 ft | 49 kts | 15° |
| 2026-04-25 16:38 | 29.73967 | 35.01539 | 304 ft | 47 kts | 14° |
| 2026-04-25 16:38 | 29.74203 | 35.01605 | 305 ft | 28 kts | 13° |
| 2026-04-25 16:38 | 29.74324 | 35.01700 | 305 ft | 18 kts | 97° |
| 2026-04-25 16:38 | 29.74290 | 35.01820 | 305 ft | 12 kts | 132° |
| 2026-04-25 16:39 | 29.74220 | 35.01835 | 305 ft | 11 kts | 189° |
| 2026-04-25 16:39 | 29.73869 | 35.01741 | 305 ft | 92 kts | 193° |
| 2026-04-25 16:39 | 29.72995 | 35.01492 | 314 ft | 159 kts | 191° |
| 2026-04-25 16:39 | 29.71947 | 35.01178 | 1017 ft | 163 kts | 198° |
| 2026-04-25 16:40 | 29.70803 | 35.00837 | 1632 ft | 183 kts | 191° |
| 2026-04-25 16:40 | 29.69474 | 35.00522 | 2154 ft | 205 kts | 197° |
| 2026-04-25 16:40 | 29.68210 | 34.99614 | 2506 ft | 228 kts | 233° |
| 2026-04-25 16:40 | 29.67643 | 34.97870 | 2938 ft | 247 kts | 268° |
| 2026-04-25 16:41 | 29.67931 | 34.95866 | 3370 ft | 268 kts | 294° |
| 2026-04-25 16:41 | 29.69034 | 34.94202 | 4412 ft | 265 kts | 324° |
| 2026-04-25 16:41 | 29.72593 | 34.93960 | 6123 ft | 282 kts | 28° |
| 2026-04-25 16:42 | 29.74155 | 34.95314 | 7010 ft | 286 kts | 38° |
| 2026-04-25 16:42 | 29.75745 | 34.96724 | 7813 ft | 292 kts | 33° |
| 2026-04-25 16:42 | 29.77417 | 34.98022 | 8673 ft | 295 kts | 32° |
| 2026-04-25 16:42 | 29.79140 | 34.99342 | 9494 ft | 299 kts | 32° |
| 2026-04-25 16:43 | 29.80870 | 35.00661 | 10281 ft | 304 kts | 32° |
| 2026-04-25 16:43 | 29.82729 | 35.01810 | 11057 ft | 307 kts | 18° |
| 2026-04-25 16:43 | 29.84794 | 35.02354 | 11815 ft | 308 kts | 5° |
| 2026-04-25 16:43 | 29.86945 | 35.02697 | 12596 ft | 312 kts | 6° |
| 2026-04-25 16:44 | 29.89094 | 35.03097 | 13271 ft | 318 kts | 7° |
| 2026-04-25 16:44 | 29.91272 | 35.03522 | 13980 ft | 322 kts | 7° |
| 2026-04-25 16:44 | 29.93496 | 35.03952 | 14663 ft | 327 kts | 7° |
| 2026-04-25 16:44 | 29.95773 | 35.04390 | 15328 ft | 332 kts | 7° |
| 2026-04-25 16:45 | 29.98039 | 35.04831 | 15995 ft | 336 kts | 6° |
| 2026-04-25 16:45 | 30.00347 | 35.05284 | 16682 ft | 339 kts | 7° |
| 2026-04-25 16:45 | 30.02681 | 35.05734 | 17323 ft | 342 kts | 6° |
| 2026-04-25 16:45 | 30.05069 | 35.06199 | 17665 ft | 356 kts | 6° |
| 2026-04-25 16:46 | 30.07606 | 35.06691 | 17765 ft | 377 kts | 7° |
| 2026-04-25 16:46 | 30.10242 | 35.07224 | 17859 ft | 397 kts | 7° |
| 2026-04-25 16:46 | 30.13062 | 35.07802 | 17925 ft | 416 kts | 7° |
| 2026-04-25 16:46 | 30.14019 | 35.07999 | 17942 ft | 422 kts | 7° |
| 2026-04-25 16:47 | 30.18978 | 35.09031 | 18038 ft | 449 kts | 7° |
| 2026-04-25 16:47 | 30.22079 | 35.09673 | 18323 ft | 458 kts | 7° |
| 2026-04-25 16:47 | 30.25282 | 35.10307 | 18645 ft | 465 kts | 7° |
| 2026-04-25 16:47 | 30.28466 | 35.10900 | 19130 ft | 468 kts | 6° |
| 2026-04-25 16:48 | 30.31690 | 35.11499 | 19567 ft | 472 kts | 7° |
| 2026-04-25 16:48 | 30.34949 | 35.12117 | 19986 ft | 477 kts | 6° |
| 2026-04-25 16:48 | 30.38261 | 35.12763 | 20489 ft | 479 kts | 7° |
| 2026-04-25 16:48 | 30.41529 | 35.13394 | 20924 ft | 481 kts | 6° |
| 2026-04-25 16:49 | 30.44831 | 35.14028 | 21370 ft | 483 kts | 6° |
| 2026-04-25 16:49 | 30.48153 | 35.14667 | 21778 ft | 486 kts | 6° |
| 2026-04-25 16:49 | 30.51516 | 35.15327 | 22047 ft | 492 kts | 8° |
| 2026-04-25 16:49 | 30.54883 | 35.16263 | 22502 ft | 496 kts | 13° |
| 2026-04-25 16:50 | 30.58175 | 35.17556 | 22753 ft | 503 kts | 19° |
| 2026-04-25 16:50 | 30.61421 | 35.19061 | 22892 ft | 505 kts | 20° |
| 2026-04-25 16:50 | 30.64682 | 35.20613 | 22882 ft | 505 kts | 20° |
| 2026-04-25 16:50 | 30.67915 | 35.22158 | 22878 ft | 500 kts | 20° |
| 2026-04-25 16:51 | 30.71126 | 35.23705 | 22865 ft | 497 kts | 20° |
| 2026-04-25 16:51 | 30.74318 | 35.25247 | 22861 ft | 497 kts | 20° |
| 2026-04-25 16:51 | 30.77480 | 35.26781 | 22863 ft | 500 kts | 20° |
| 2026-04-25 16:51 | 30.78571 | 35.27312 | 22866 ft | 501 kts | 20° |
| 2026-04-25 16:52 | 30.83912 | 35.29925 | 22873 ft | 499 kts | 20° |
| 2026-04-25 16:52 | 30.87139 | 35.31514 | 22881 ft | 498 kts | 20° |
| 2026-04-25 16:52 | 30.90305 | 35.33030 | 22881 ft | 497 kts | 19° |
| 2026-04-25 16:52 | 30.93563 | 35.34365 | 22874 ft | 497 kts | 14° |
| 2026-04-25 16:53 | 31.00336 | 35.35723 | 22382 ft | 490 kts | 1° |
| 2026-04-25 16:53 | 31.03731 | 35.36033 | 22130 ft | 487 kts | 1° |
| 2026-04-25 16:53 | 31.07109 | 35.36373 | 21704 ft | 488 kts | 1° |
| 2026-04-25 16:54 | 31.10484 | 35.36730 | 21208 ft | 482 kts | 2° |
| 2026-04-25 16:54 | 31.13823 | 35.37077 | 20717 ft | 475 kts | 2° |
| 2026-04-25 16:54 | 31.17061 | 35.37414 | 20245 ft | 471 kts | 2° |
| 2026-04-25 16:54 | 31.20320 | 35.37754 | 19764 ft | 468 kts | 2° |
| 2026-04-25 16:55 | 31.23552 | 35.38094 | 19297 ft | 466 kts | 2° |
| 2026-04-25 16:55 | 31.26790 | 35.38440 | 18790 ft | 464 kts | 2° |
| 2026-04-25 16:55 | 31.29986 | 35.38781 | 18337 ft | 460 kts | 2° |
| 2026-04-25 16:55 | 31.33181 | 35.39145 | 17845 ft | 456 kts | 4° |
| 2026-04-25 16:56 | 31.36285 | 35.39737 | 17191 ft | 456 kts | 8° |
| 2026-04-25 16:56 | 31.39368 | 35.40457 | 16430 ft | 452 kts | 9° |
| 2026-04-25 16:56 | 31.42467 | 35.41171 | 15682 ft | 447 kts | 9° |
| 2026-04-25 16:56 | 31.45479 | 35.41848 | 14924 ft | 442 kts | 9° |
| 2026-04-25 16:57 | 31.48464 | 35.42519 | 14184 ft | 437 kts | 9° |
| 2026-04-25 16:57 | 31.49455 | 35.42742 | 13930 ft | 435 kts | 9° |
| 2026-04-25 16:57 | 31.54346 | 35.43836 | 12698 ft | 427 kts | 9° |
| 2026-04-25 16:57 | 31.57282 | 35.44494 | 11955 ft | 422 kts | 9° |
| 2026-04-25 16:58 | 31.60143 | 35.45134 | 11223 ft | 417 kts | 9° |
| 2026-04-25 16:58 | 31.62980 | 35.45778 | 10470 ft | 413 kts | 10° |
| 2026-04-25 16:58 | 31.65763 | 35.46430 | 9731 ft | 409 kts | 10° |
| 2026-04-25 16:58 | 31.68564 | 35.47100 | 8706 ft | 414 kts | 10° |
| 2026-04-25 16:59 | 31.71410 | 35.47760 | 7258 ft | 425 kts | 7° |
| 2026-04-25 16:59 | 31.74293 | 35.47763 | 6911 ft | 401 kts | 348° |
| 2026-04-25 16:59 | 31.76788 | 35.46723 | 6940 ft | 373 kts | 329° |
| 2026-04-25 16:59 | 31.78891 | 35.44940 | 6976 ft | 375 kts | 317° |
| 2026-04-25 17:00 | 31.80818 | 35.42838 | 6785 ft | 380 kts | 315° |
| 2026-04-25 17:00 | 31.82713 | 35.40736 | 6272 ft | 372 kts | 315° |
| 2026-04-25 17:00 | 31.84570 | 35.38708 | 6002 ft | 356 kts | 315° |
| 2026-04-25 17:00 | 31.86340 | 35.36776 | 6000 ft | 334 kts | 315° |
| 2026-04-25 17:01 | 31.88017 | 35.34938 | 6027 ft | 328 kts | 315° |
| 2026-04-25 17:01 | 31.89705 | 35.33098 | 6041 ft | 331 kts | 315° |
| 2026-04-25 17:01 | 31.91388 | 35.31266 | 6046 ft | 332 kts | 315° |
| 2026-04-25 17:01 | 31.93075 | 35.29416 | 6051 ft | 332 kts | 315° |
| 2026-04-25 17:02 | 31.94735 | 35.27537 | 6053 ft | 330 kts | 310° |
| 2026-04-25 17:02 | 31.96173 | 35.25417 | 6070 ft | 329 kts | 304° |
| 2026-04-25 17:02 | 31.97550 | 35.23267 | 6072 ft | 326 kts | 306° |
| 2026-04-25 17:02 | 31.98847 | 35.21326 | 6062 ft | 318 kts | 306° |
| 2026-04-25 17:03 | 32.00236 | 35.19255 | 6053 ft | 318 kts | 306° |
| 2026-04-25 17:03 | 32.01608 | 35.17207 | 6050 ft | 320 kts | 306° |
| 2026-04-25 17:03 | 32.02986 | 35.15163 | 6041 ft | 320 kts | 307° |
| 2026-04-25 17:03 | 32.04376 | 35.13107 | 6033 ft | 319 kts | 307° |
| 2026-04-25 17:04 | 32.05743 | 35.11078 | 6034 ft | 319 kts | 306° |
| 2026-04-25 17:04 | 32.07140 | 35.09005 | 6031 ft | 319 kts | 307° |
| 2026-04-25 17:04 | 32.08511 | 35.06969 | 6017 ft | 320 kts | 307° |
| 2026-04-25 17:04 | 32.09888 | 35.04930 | 6014 ft | 321 kts | 307° |
| 2026-04-25 17:05 | 32.11297 | 35.02844 | 6016 ft | 320 kts | 307° |
| 2026-04-25 17:05 | 32.14076 | 34.98724 | 6004 ft | 322 kts | 307° |
| 2026-04-25 17:05 | 32.15468 | 34.96656 | 5988 ft | 321 kts | 307° |
| 2026-04-25 17:06 | 32.16855 | 34.94595 | 6004 ft | 317 kts | 307° |
| 2026-04-25 17:06 | 32.18176 | 34.92637 | 6001 ft | 299 kts | 306° |
| 2026-04-25 17:06 | 32.19446 | 34.90748 | 5995 ft | 288 kts | 306° |
| 2026-04-25 17:06 | 32.20687 | 34.88897 | 5994 ft | 291 kts | 306° |
| 2026-04-25 17:07 | 32.21942 | 34.87027 | 5998 ft | 290 kts | 305° |
| 2026-04-25 17:07 | 32.23134 | 34.85073 | 6002 ft | 290 kts | 296° |
| 2026-04-25 17:07 | 32.23609 | 34.82825 | 5986 ft | 285 kts | 265° |
| 2026-04-25 17:07 | 32.23000 | 34.80662 | 5992 ft | 282 kts | 233° |
| 2026-04-25 17:08 | 32.21502 | 34.79200 | 5999 ft | 284 kts | 207° |
| 2026-04-25 17:08 | 32.19660 | 34.78332 | 5997 ft | 285 kts | 200° |
| 2026-04-25 17:08 | 32.17777 | 34.77607 | 5989 ft | 285 kts | 195° |
| 2026-04-25 17:08 | 32.15789 | 34.77433 | 5993 ft | 288 kts | 171° |
| 2026-04-25 17:09 | 32.13977 | 34.78450 | 5997 ft | 293 kts | 139° |
| 2026-04-25 17:09 | 32.12631 | 34.80244 | 6016 ft | 295 kts | 131° |
| 2026-04-25 17:09 | 32.11283 | 34.82079 | 6012 ft | 294 kts | 134° |
| 2026-04-25 17:09 | 32.09887 | 34.83839 | 6002 ft | 293 kts | 135° |
| 2026-04-25 17:10 | 32.08493 | 34.85598 | 5634 ft | 302 kts | 135° |
| 2026-04-25 17:10 | 32.07023 | 34.87436 | 4541 ft | 325 kts | 135° |
| 2026-04-25 17:10 | 32.05438 | 34.89411 | 3727 ft | 328 kts | 134° |
| 2026-04-25 17:10 | 32.03941 | 34.91285 | 3680 ft | 297 kts | 134° |
| 2026-04-25 17:11 | 32.02616 | 34.92957 | 3708 ft | 269 kts | 134° |
| 2026-04-25 17:11 | 32.01389 | 34.94509 | 3712 ft | 247 kts | 134° |
| 2026-04-25 17:11 | 32.00252 | 34.95947 | 3559 ft | 234 kts | 134° |
| 2026-04-25 17:11 | 31.99156 | 34.97316 | 3336 ft | 225 kts | 134° |
| 2026-04-25 17:12 | 31.98085 | 34.98652 | 3106 ft | 222 kts | 134° |
| 2026-04-25 17:12 | 31.97047 | 34.99952 | 2869 ft | 219 kts | 134° |
| 2026-04-25 17:12 | 31.96004 | 35.01246 | 2674 ft | 213 kts | 134° |
| 2026-04-25 17:12 | 31.94995 | 35.02516 | 2712 ft | 212 kts | 134° |
| 2026-04-25 17:13 | 31.93976 | 35.03792 | 2721 ft | 214 kts | 134° |
| 2026-04-25 17:13 | 31.93645 | 35.04207 | 2718 ft | 214 kts | 134° |
| 2026-04-25 17:13 | 31.91939 | 35.06329 | 2719 ft | 214 kts | 134° |
| 2026-04-25 17:13 | 31.90898 | 35.07530 | 2706 ft | 202 kts | 146° |
| 2026-04-25 17:14 | 31.89614 | 35.08058 | 2718 ft | 195 kts | 182° |
| 2026-04-25 17:14 | 31.88334 | 35.07582 | 2732 ft | 196 kts | 217° |
| 2026-04-25 17:14 | 31.87466 | 35.06370 | 2724 ft | 195 kts | 247° |
| 2026-04-25 17:14 | 31.87273 | 35.04829 | 2717 ft | 194 kts | 279° |
| 2026-04-25 17:15 | 31.87847 | 35.03399 | 2721 ft | 196 kts | 312° |
| 2026-04-25 17:15 | 31.88978 | 35.02549 | 2726 ft | 199 kts | 343° |
| 2026-04-25 17:15 | 31.90361 | 35.02566 | 2726 ft | 201 kts | 15° |
| 2026-04-25 17:15 | 31.91704 | 35.03048 | 2734 ft | 201 kts | 6° |
| 2026-04-25 17:16 | 31.93045 | 35.02731 | 2719 ft | 198 kts | 322° |
| 2026-04-25 17:16 | 31.93910 | 35.01485 | 2602 ft | 200 kts | 296° |
| 2026-04-25 17:16 | 31.94565 | 35.00042 | 2317 ft | 200 kts | 298° |
| 2026-04-25 17:16 | 31.95262 | 34.98625 | 2058 ft | 199 kts | 299° |
| 2026-04-25 17:17 | 31.95941 | 34.97262 | 2040 ft | 182 kts | 299° |
| 2026-04-25 17:17 | 31.96564 | 34.96069 | 1921 ft | 168 kts | 300° |
| 2026-04-25 17:17 | 31.97162 | 34.94870 | 1565 ft | 168 kts | 300° |
| 2026-04-25 17:17 | 31.97762 | 34.93689 | 1063 ft | 167 kts | 301° |
| 2026-04-25 17:18 | 31.98365 | 34.92572 | 750 ft | 158 kts | 303° |
| 2026-04-25 17:18 | 31.98930 | 34.91458 | 596 ft | 159 kts | 300° |
| 2026-04-25 17:18 | 31.99517 | 34.90358 | 357 ft | 154 kts | 302° |
| 2026-04-25 17:18 | 32.00040 | 34.89370 | 162 ft | 147 kts | 300° |
| 2026-04-25 17:19 | 32.00468 | 34.88511 | 142 ft | 80 kts | 299° |
| 2026-04-25 17:19 | 32.00680 | 34.88124 | 141 ft | 25 kts | 297° |
| 2026-04-25 17:19 | 32.00705 | 34.88033 | 141 ft | 8 kts | 268° |
| 2026-04-25 17:19 | 32.00689 | 34.87990 | 141 ft | 4 kts | 217° |
| 2026-04-25 17:20 | 32.00651 | 34.87961 | 141 ft | 12 kts | 210° |
| 2026-04-25 17:20 | 32.00548 | 34.87890 | 141 ft | 24 kts | 211° |
| 2026-04-25 17:20 | 32.00406 | 34.87788 | 141 ft | 23 kts | 212° |
| 2026-04-25 17:20 | 32.00334 | 34.87736 | 141 ft | 9 kts | 211° |
| 2026-04-25 17:21 | 32.00285 | 34.87702 | 141 ft | 8 kts | 210° |
| 2026-04-25 17:21 | 32.00249 | 34.87677 | 141 ft | 8 kts | 209° |
| 2026-04-25 17:21 | 32.00207 | 34.87666 | 141 ft | 11 kts | 168° |
| 2026-04-25 17:21 | 32.00168 | 34.87698 | 141 ft | 9 kts | 162° |
| 2026-04-25 17:22 | 32.00136 | 34.87699 | 141 ft | 4 kts | 157° |
| 2026-04-25 17:22 | 32.00126 | 34.87706 | 141 ft | 4 kts | 144° |
| 2026-04-25 17:22 | 32.00098 | 34.87754 | 141 ft | 0 kts | 120° |
| 2026-04-25 17:22 | 32.00094 | 34.87761 | 142 ft | 0 kts | 122° |